sensor_id;sensor_type;location;lat;lon;timestamp;P1;durP1;ratioP1;P2;durP2;ratioP2
8466;SDS011;4270;48.148;11.648;2022-12-10T00:00:48;52.87;;;24.00;;
8466;SDS011;4270;48.148;11.648;2022-12-10T00:03:13;54.97;;;23.20;;
8466;SDS011;4270;48.148;11.648;2022-12-10T00:05:38;52.80;;;21.73;;
8466;SDS011;4270;48.148;11.648;2022-12-10T00:08:03;55.10;;;23.17;;
8466;SDS011;4270;48.148;11.648;2022-12-10T00:10:29;53.03;;;24.03;;
8466;SDS011;4270;48.148;11.648;2022-12-10T00:12:54;49.37;;;23.00;;
8466;SDS011;4270;48.148;11.648;2022-12-10T00:15:19;55.57;;;23.90;;
8466;SDS011;4270;48.148;11.648;2022-12-10T00:17:44;51.00;;;23.90;;
8466;SDS011;4270;48.148;11.648;2022-12-10T00:20:09;53.63;;;23.93;;
8466;SDS011;4270;48.148;11.648;2022-12-10T00:22:35;55.43;;;24.47;;
8466;SDS011;4270;48.148;11.648;2022-12-10T00:25:00;46.40;;;23.50;;
8466;SDS011;4270;48.148;11.648;2022-12-10T00:27:25;63.07;;;24.50;;
8466;SDS011;4270;48.148;11.648;2022-12-10T00:29:50;67.33;;;24.60;;
8466;SDS011;4270;48.148;11.648;2022-12-10T00:32:15;56.37;;;22.77;;
8466;SDS011;4270;48.148;11.648;2022-12-10T00:34:41;53.33;;;21.90;;
8466;SDS011;4270;48.148;11.648;2022-12-10T00:37:06;50.60;;;22.53;;
8466;SDS011;4270;48.148;11.648;2022-12-10T00:39:31;59.63;;;24.70;;
8466;SDS011;4270;48.148;11.648;2022-12-10T00:41:56;57.00;;;24.70;;
8466;SDS011;4270;48.148;11.648;2022-12-10T00:44:21;56.17;;;24.07;;
8466;SDS011;4270;48.148;11.648;2022-12-10T00:46:47;49.73;;;21.87;;
8466;SDS011;4270;48.148;11.648;2022-12-10T00:49:12;47.93;;;23.10;;
8466;SDS011;4270;48.148;11.648;2022-12-10T00:51:37;47.27;;;22.67;;
8466;SDS011;4270;48.148;11.648;2022-12-10T00:54:03;60.00;;;25.23;;
8466;SDS011;4270;48.148;11.648;2022-12-10T00:56:29;48.27;;;23.13;;
8466;SDS011;4270;48.148;11.648;2022-12-10T00:58:54;52.13;;;22.63;;
8466;SDS011;4270;48.148;11.648;2022-12-10T01:01:24;49.90;;;23.30;;
8466;SDS011;4270;48.148;11.648;2022-12-10T01:03:50;45.30;;;22.27;;
8466;SDS011;4270;48.148;11.648;2022-12-10T01:08:51;51.53;;;25.43;;
8466;SDS011;4270;48.148;11.648;2022-12-10T01:11:17;47.77;;;23.07;;
8466;SDS011;4270;48.148;11.648;2022-12-10T01:13:43;53.23;;;23.13;;
8466;SDS011;4270;48.148;11.648;2022-12-10T01:16:09;53.60;;;24.80;;
8466;SDS011;4270;48.148;11.648;2022-12-10T01:18:35;56.43;;;25.13;;
8466;SDS011;4270;48.148;11.648;2022-12-10T01:21:04;56.90;;;24.70;;
8466;SDS011;4270;48.148;11.648;2022-12-10T01:23:34;53.50;;;23.57;;
8466;SDS011;4270;48.148;11.648;2022-12-10T01:26:00;49.23;;;25.80;;
8466;SDS011;4270;48.148;11.648;2022-12-10T01:28:27;55.20;;;23.47;;
8466;SDS011;4270;48.148;11.648;2022-12-10T01:30:52;53.20;;;25.70;;
8466;SDS011;4270;48.148;11.648;2022-12-10T01:33:17;54.07;;;25.67;;
8466;SDS011;4270;48.148;11.648;2022-12-10T01:35:42;50.27;;;24.67;;
8466;SDS011;4270;48.148;11.648;2022-12-10T01:38:08;50.97;;;23.50;;
8466;SDS011;4270;48.148;11.648;2022-12-10T01:40:36;52.20;;;24.20;;
8466;SDS011;4270;48.148;11.648;2022-12-10T01:43:02;57.23;;;24.90;;
8466;SDS011;4270;48.148;11.648;2022-12-10T01:45:27;61.10;;;22.73;;
8466;SDS011;4270;48.148;11.648;2022-12-10T01:47:52;56.10;;;24.77;;
8466;SDS011;4270;48.148;11.648;2022-12-10T01:50:17;52.43;;;24.40;;
8466;SDS011;4270;48.148;11.648;2022-12-10T01:52:42;48.03;;;23.60;;
8466;SDS011;4270;48.148;11.648;2022-12-10T01:55:34;54.03;;;22.43;;
8466;SDS011;4270;48.148;11.648;2022-12-10T01:57:53;52.03;;;22.90;;
8466;SDS011;4270;48.148;11.648;2022-12-10T02:00:18;52.03;;;23.50;;
8466;SDS011;4270;48.148;11.648;2022-12-10T02:15:25;57.07;;;24.27;;
8466;SDS011;4270;48.148;11.648;2022-12-10T02:18:00;54.37;;;23.57;;
8466;SDS011;4270;48.148;11.648;2022-12-10T02:20:35;48.53;;;22.60;;
8466;SDS011;4270;48.148;11.648;2022-12-10T02:23:04;53.83;;;23.00;;
8466;SDS011;4270;48.148;11.648;2022-12-10T02:25:46;45.63;;;23.00;;
8466;SDS011;4270;48.148;11.648;2022-12-10T02:30:38;45.53;;;22.30;;
8466;SDS011;4270;48.148;11.648;2022-12-10T02:33:04;48.00;;;21.10;;
8466;SDS011;4270;48.148;11.648;2022-12-10T02:35:31;49.50;;;22.10;;
8466;SDS011;4270;48.148;11.648;2022-12-10T02:37:59;57.57;;;23.40;;
8466;SDS011;4270;48.148;11.648;2022-12-10T02:40:28;53.17;;;21.30;;
8466;SDS011;4270;48.148;11.648;2022-12-10T02:42:54;50.37;;;23.10;;
8466;SDS011;4270;48.148;11.648;2022-12-10T02:45:20;52.37;;;22.63;;
8466;SDS011;4270;48.148;11.648;2022-12-10T02:47:46;54.13;;;23.70;;
8466;SDS011;4270;48.148;11.648;2022-12-10T02:50:12;56.90;;;23.70;;
8466;SDS011;4270;48.148;11.648;2022-12-10T02:52:39;50.87;;;21.67;;
8466;SDS011;4270;48.148;11.648;2022-12-10T02:55:04;51.87;;;22.40;;
8466;SDS011;4270;48.148;11.648;2022-12-10T02:57:46;50.83;;;22.13;;
8466;SDS011;4270;48.148;11.648;2022-12-10T03:05:33;51.43;;;22.53;;
8466;SDS011;4270;48.148;11.648;2022-12-10T03:13:00;46.47;;;20.57;;
8466;SDS011;4270;48.148;11.648;2022-12-10T03:15:27;59.00;;;24.57;;
8466;SDS011;4270;48.148;11.648;2022-12-10T03:17:53;51.33;;;23.63;;
8466;SDS011;4270;48.148;11.648;2022-12-10T03:20:19;55.27;;;23.03;;
8466;SDS011;4270;48.148;11.648;2022-12-10T03:22:46;52.00;;;22.03;;
8466;SDS011;4270;48.148;11.648;2022-12-10T03:25:15;52.43;;;22.60;;
8466;SDS011;4270;48.148;11.648;2022-12-10T03:27:42;48.40;;;21.23;;
8466;SDS011;4270;48.148;11.648;2022-12-10T03:30:08;49.87;;;22.57;;
8466;SDS011;4270;48.148;11.648;2022-12-10T03:32:33;48.67;;;21.47;;
8466;SDS011;4270;48.148;11.648;2022-12-10T03:35:00;54.60;;;22.40;;
8466;SDS011;4270;48.148;11.648;2022-12-10T03:37:26;49.17;;;22.17;;
8466;SDS011;4270;48.148;11.648;2022-12-10T03:39:51;47.73;;;21.47;;
8466;SDS011;4270;48.148;11.648;2022-12-10T03:42:17;50.80;;;23.33;;
8466;SDS011;4270;48.148;11.648;2022-12-10T03:44:42;52.67;;;22.13;;
8466;SDS011;4270;48.148;11.648;2022-12-10T03:47:09;56.73;;;21.80;;
8466;SDS011;4270;48.148;11.648;2022-12-10T03:49:35;48.70;;;20.70;;
8466;SDS011;4270;48.148;11.648;2022-12-10T03:52:00;47.43;;;21.83;;
8466;SDS011;4270;48.148;11.648;2022-12-10T03:54:25;46.77;;;21.10;;
8466;SDS011;4270;48.148;11.648;2022-12-10T03:56:51;45.93;;;19.33;;
8466;SDS011;4270;48.148;11.648;2022-12-10T03:59:16;47.90;;;21.73;;
8466;SDS011;4270;48.148;11.648;2022-12-10T04:01:41;48.80;;;20.37;;
8466;SDS011;4270;48.148;11.648;2022-12-10T04:04:06;55.63;;;23.37;;
8466;SDS011;4270;48.148;11.648;2022-12-10T04:06:31;47.50;;;21.00;;
8466;SDS011;4270;48.148;11.648;2022-12-10T04:08:56;41.60;;;18.53;;
8466;SDS011;4270;48.148;11.648;2022-12-10T04:11:22;52.20;;;21.97;;
8466;SDS011;4270;48.148;11.648;2022-12-10T04:13:48;51.20;;;21.73;;
8466;SDS011;4270;48.148;11.648;2022-12-10T04:16:32;56.77;;;22.00;;
8466;SDS011;4270;48.148;11.648;2022-12-10T04:21:22;53.60;;;23.23;;
8466;SDS011;4270;48.148;11.648;2022-12-10T04:24:07;54.63;;;21.80;;
8466;SDS011;4270;48.148;11.648;2022-12-10T04:26:52;52.97;;;21.97;;
8466;SDS011;4270;48.148;11.648;2022-12-10T04:29:21;50.90;;;20.60;;
8466;SDS011;4270;48.148;11.648;2022-12-10T04:31:46;49.20;;;20.37;;
8466;SDS011;4270;48.148;11.648;2022-12-10T04:34:11;49.77;;;21.10;;
8466;SDS011;4270;48.148;11.648;2022-12-10T04:36:37;54.07;;;23.90;;
8466;SDS011;4270;48.148;11.648;2022-12-10T04:39:02;52.43;;;24.07;;
8466;SDS011;4270;48.148;11.648;2022-12-10T04:41:27;50.53;;;23.50;;
8466;SDS011;4270;48.148;11.648;2022-12-10T04:43:53;44.17;;;21.43;;
8466;SDS011;4270;48.148;11.648;2022-12-10T04:46:18;49.67;;;23.03;;
8466;SDS011;4270;48.148;11.648;2022-12-10T04:48:43;44.70;;;20.97;;
8466;SDS011;4270;48.148;11.648;2022-12-10T04:51:08;45.07;;;20.97;;
8466;SDS011;4270;48.148;11.648;2022-12-10T04:53:34;48.50;;;23.27;;
8466;SDS011;4270;48.148;11.648;2022-12-10T04:55:59;47.57;;;21.00;;
8466;SDS011;4270;48.148;11.648;2022-12-10T04:58:25;44.50;;;20.87;;
8466;SDS011;4270;48.148;11.648;2022-12-10T05:01:00;49.67;;;24.00;;
8466;SDS011;4270;48.148;11.648;2022-12-10T05:03:25;50.67;;;21.17;;
8466;SDS011;4270;48.148;11.648;2022-12-10T05:05:50;45.67;;;22.17;;
8466;SDS011;4270;48.148;11.648;2022-12-10T05:08:15;52.40;;;20.77;;
8466;SDS011;4270;48.148;11.648;2022-12-10T05:10:40;48.80;;;22.23;;
8466;SDS011;4270;48.148;11.648;2022-12-10T05:13:06;44.00;;;20.10;;
8466;SDS011;4270;48.148;11.648;2022-12-10T05:15:31;48.53;;;22.90;;
8466;SDS011;4270;48.148;11.648;2022-12-10T05:17:56;49.10;;;22.40;;
8466;SDS011;4270;48.148;11.648;2022-12-10T05:20:21;47.53;;;20.93;;
8466;SDS011;4270;48.148;11.648;2022-12-10T05:22:46;47.63;;;22.30;;
8466;SDS011;4270;48.148;11.648;2022-12-10T05:25:30;45.97;;;20.90;;
8466;SDS011;4270;48.148;11.648;2022-12-10T05:27:55;51.70;;;21.77;;
8466;SDS011;4270;48.148;11.648;2022-12-10T05:30:20;51.07;;;23.40;;
8466;SDS011;4270;48.148;11.648;2022-12-10T05:32:45;54.30;;;22.33;;
8466;SDS011;4270;48.148;11.648;2022-12-10T05:35:11;49.70;;;22.30;;
8466;SDS011;4270;48.148;11.648;2022-12-10T05:37:36;50.07;;;22.77;;
8466;SDS011;4270;48.148;11.648;2022-12-10T05:40:01;46.30;;;21.57;;
8466;SDS011;4270;48.148;11.648;2022-12-10T05:42:26;48.40;;;23.57;;
8466;SDS011;4270;48.148;11.648;2022-12-10T05:44:52;47.70;;;23.37;;
8466;SDS011;4270;48.148;11.648;2022-12-10T05:47:17;50.50;;;24.87;;
8466;SDS011;4270;48.148;11.648;2022-12-10T05:49:43;47.40;;;24.57;;
8466;SDS011;4270;48.148;11.648;2022-12-10T05:52:08;50.67;;;23.50;;
8466;SDS011;4270;48.148;11.648;2022-12-10T05:54:34;40.80;;;21.30;;
8466;SDS011;4270;48.148;11.648;2022-12-10T05:56:59;40.90;;;22.13;;
8466;SDS011;4270;48.148;11.648;2022-12-10T05:59:24;42.37;;;21.90;;
8466;SDS011;4270;48.148;11.648;2022-12-10T06:01:50;42.37;;;20.83;;
8466;SDS011;4270;48.148;11.648;2022-12-10T06:04:15;48.43;;;20.77;;
8466;SDS011;4270;48.148;11.648;2022-12-10T06:06:40;42.10;;;22.20;;
8466;SDS011;4270;48.148;11.648;2022-12-10T06:09:06;43.10;;;20.57;;
8466;SDS011;4270;48.148;11.648;2022-12-10T06:11:32;40.17;;;20.23;;
8466;SDS011;4270;48.148;11.648;2022-12-10T06:13:57;44.20;;;20.70;;
8466;SDS011;4270;48.148;11.648;2022-12-10T06:16:23;45.43;;;20.30;;
8466;SDS011;4270;48.148;11.648;2022-12-10T06:18:49;44.10;;;21.63;;
8466;SDS011;4270;48.148;11.648;2022-12-10T06:21:15;43.57;;;22.40;;
8466;SDS011;4270;48.148;11.648;2022-12-10T06:23:40;41.80;;;21.83;;
8466;SDS011;4270;48.148;11.648;2022-12-10T06:26:15;39.47;;;21.03;;
8466;SDS011;4270;48.148;11.648;2022-12-10T06:28:41;38.37;;;20.13;;
8466;SDS011;4270;48.148;11.648;2022-12-10T06:31:07;39.27;;;22.00;;
8466;SDS011;4270;48.148;11.648;2022-12-10T06:33:32;42.53;;;21.43;;
8466;SDS011;4270;48.148;11.648;2022-12-10T06:35:57;40.50;;;21.27;;
8466;SDS011;4270;48.148;11.648;2022-12-10T06:38:23;43.97;;;21.20;;
8466;SDS011;4270;48.148;11.648;2022-12-10T06:40:48;43.30;;;22.53;;
8466;SDS011;4270;48.148;11.648;2022-12-10T06:43:13;38.03;;;19.93;;
8466;SDS011;4270;48.148;11.648;2022-12-10T06:45:39;46.93;;;21.53;;
8466;SDS011;4270;48.148;11.648;2022-12-10T06:48:04;41.10;;;21.00;;
8466;SDS011;4270;48.148;11.648;2022-12-10T06:50:29;47.30;;;23.20;;
8466;SDS011;4270;48.148;11.648;2022-12-10T06:52:54;41.97;;;20.30;;
8466;SDS011;4270;48.148;11.648;2022-12-10T06:55:20;39.33;;;21.77;;
8466;SDS011;4270;48.148;11.648;2022-12-10T06:57:45;38.70;;;20.97;;
8466;SDS011;4270;48.148;11.648;2022-12-10T07:00:10;40.90;;;20.93;;
8466;SDS011;4270;48.148;11.648;2022-12-10T07:02:36;44.33;;;20.70;;
8466;SDS011;4270;48.148;11.648;2022-12-10T07:05:01;39.63;;;21.53;;
8466;SDS011;4270;48.148;11.648;2022-12-10T07:07:26;36.30;;;19.47;;
8466;SDS011;4270;48.148;11.648;2022-12-10T07:09:51;40.00;;;20.73;;
8466;SDS011;4270;48.148;11.648;2022-12-10T07:12:16;39.30;;;19.67;;
8466;SDS011;4270;48.148;11.648;2022-12-10T07:14:41;41.47;;;20.87;;
8466;SDS011;4270;48.148;11.648;2022-12-10T07:17:07;41.47;;;21.70;;
8466;SDS011;4270;48.148;11.648;2022-12-10T07:19:32;47.23;;;21.63;;
8466;SDS011;4270;48.148;11.648;2022-12-10T07:21:57;36.70;;;19.63;;
8466;SDS011;4270;48.148;11.648;2022-12-10T07:24:22;42.83;;;22.83;;
8466;SDS011;4270;48.148;11.648;2022-12-10T07:26:47;43.73;;;21.20;;
8466;SDS011;4270;48.148;11.648;2022-12-10T07:29:17;40.43;;;21.57;;
8466;SDS011;4270;48.148;11.648;2022-12-10T07:31:42;40.37;;;22.00;;
8466;SDS011;4270;48.148;11.648;2022-12-10T07:34:08;37.23;;;20.60;;
8466;SDS011;4270;48.148;11.648;2022-12-10T07:36:34;37.20;;;19.73;;
8466;SDS011;4270;48.148;11.648;2022-12-10T07:38:59;42.80;;;21.23;;
8466;SDS011;4270;48.148;11.648;2022-12-10T07:41:24;41.80;;;21.90;;
8466;SDS011;4270;48.148;11.648;2022-12-10T07:43:49;40.67;;;22.10;;
8466;SDS011;4270;48.148;11.648;2022-12-10T07:46:19;39.60;;;20.70;;
8466;SDS011;4270;48.148;11.648;2022-12-10T07:48:45;40.50;;;21.10;;
8466;SDS011;4270;48.148;11.648;2022-12-10T07:51:11;38.87;;;20.57;;
8466;SDS011;4270;48.148;11.648;2022-12-10T07:53:36;36.63;;;20.13;;
8466;SDS011;4270;48.148;11.648;2022-12-10T07:56:02;41.43;;;22.47;;
8466;SDS011;4270;48.148;11.648;2022-12-10T07:58:27;37.20;;;18.53;;
8466;SDS011;4270;48.148;11.648;2022-12-10T08:00:52;39.63;;;21.47;;
8466;SDS011;4270;48.148;11.648;2022-12-10T08:03:18;36.00;;;21.80;;
8466;SDS011;4270;48.148;11.648;2022-12-10T08:05:43;39.17;;;20.97;;
8466;SDS011;4270;48.148;11.648;2022-12-10T08:08:08;38.50;;;20.17;;
8466;SDS011;4270;48.148;11.648;2022-12-10T08:10:34;41.00;;;21.43;;
8466;SDS011;4270;48.148;11.648;2022-12-10T08:12:59;35.60;;;20.03;;
8466;SDS011;4270;48.148;11.648;2022-12-10T08:15:24;38.77;;;20.33;;
8466;SDS011;4270;48.148;11.648;2022-12-10T08:17:49;42.00;;;21.50;;
8466;SDS011;4270;48.148;11.648;2022-12-10T08:20:15;39.27;;;21.50;;
8466;SDS011;4270;48.148;11.648;2022-12-10T08:22:40;32.30;;;19.30;;
8466;SDS011;4270;48.148;11.648;2022-12-10T08:25:05;37.83;;;19.27;;
8466;SDS011;4270;48.148;11.648;2022-12-10T08:27:30;39.83;;;21.30;;
8466;SDS011;4270;48.148;11.648;2022-12-10T08:29:55;36.17;;;18.90;;
8466;SDS011;4270;48.148;11.648;2022-12-10T08:32:21;41.60;;;21.23;;
8466;SDS011;4270;48.148;11.648;2022-12-10T08:34:46;39.90;;;20.30;;
8466;SDS011;4270;48.148;11.648;2022-12-10T08:37:11;41.07;;;20.70;;
8466;SDS011;4270;48.148;11.648;2022-12-10T08:39:36;35.70;;;20.70;;
8466;SDS011;4270;48.148;11.648;2022-12-10T08:42:02;35.57;;;19.33;;
8466;SDS011;4270;48.148;11.648;2022-12-10T08:44:27;38.10;;;20.60;;
8466;SDS011;4270;48.148;11.648;2022-12-10T08:46:52;38.87;;;20.20;;
8466;SDS011;4270;48.148;11.648;2022-12-10T08:49:17;36.80;;;20.40;;
8466;SDS011;4270;48.148;11.648;2022-12-10T08:51:42;41.40;;;19.57;;
8466;SDS011;4270;48.148;11.648;2022-12-10T08:54:08;35.97;;;18.70;;
8466;SDS011;4270;48.148;11.648;2022-12-10T08:56:33;40.90;;;21.30;;
8466;SDS011;4270;48.148;11.648;2022-12-10T08:58:59;42.17;;;22.37;;
8466;SDS011;4270;48.148;11.648;2022-12-10T09:01:24;41.33;;;20.10;;
8466;SDS011;4270;48.148;11.648;2022-12-10T09:03:49;39.00;;;21.10;;
8466;SDS011;4270;48.148;11.648;2022-12-10T09:06:16;43.33;;;21.00;;
8466;SDS011;4270;48.148;11.648;2022-12-10T09:08:42;42.87;;;20.80;;
8466;SDS011;4270;48.148;11.648;2022-12-10T09:11:08;38.73;;;20.57;;
8466;SDS011;4270;48.148;11.648;2022-12-10T09:13:34;46.97;;;23.10;;
8466;SDS011;4270;48.148;11.648;2022-12-10T09:15:59;44.50;;;22.13;;
8466;SDS011;4270;48.148;11.648;2022-12-10T09:18:24;41.37;;;19.40;;
8466;SDS011;4270;48.148;11.648;2022-12-10T09:20:49;39.33;;;19.97;;
8466;SDS011;4270;48.148;11.648;2022-12-10T09:23:14;44.23;;;19.30;;
8466;SDS011;4270;48.148;11.648;2022-12-10T09:25:40;41.73;;;21.63;;
8466;SDS011;4270;48.148;11.648;2022-12-10T09:28:05;42.63;;;21.27;;
8466;SDS011;4270;48.148;11.648;2022-12-10T09:30:30;41.77;;;21.27;;
8466;SDS011;4270;48.148;11.648;2022-12-10T09:32:55;45.80;;;22.43;;
8466;SDS011;4270;48.148;11.648;2022-12-10T09:35:20;41.17;;;18.93;;
8466;SDS011;4270;48.148;11.648;2022-12-10T09:37:45;39.60;;;20.23;;
8466;SDS011;4270;48.148;11.648;2022-12-10T09:40:15;47.57;;;21.80;;
8466;SDS011;4270;48.148;11.648;2022-12-10T09:50:23;39.73;;;19.57;;
8466;SDS011;4270;48.148;11.648;2022-12-10T09:52:51;43.60;;;20.93;;
8466;SDS011;4270;48.148;11.648;2022-12-10T09:55:19;37.47;;;21.47;;
8466;SDS011;4270;48.148;11.648;2022-12-10T09:57:48;47.47;;;21.90;;
8466;SDS011;4270;48.148;11.648;2022-12-10T10:02:44;41.17;;;21.00;;
8466;SDS011;4270;48.148;11.648;2022-12-10T10:05:13;40.83;;;20.40;;
8466;SDS011;4270;48.148;11.648;2022-12-10T10:07:42;41.07;;;19.63;;
8466;SDS011;4270;48.148;11.648;2022-12-10T10:12:50;44.50;;;20.97;;
8466;SDS011;4270;48.148;11.648;2022-12-10T10:15:16;41.27;;;20.33;;
8466;SDS011;4270;48.148;11.648;2022-12-10T10:17:43;41.00;;;20.40;;
8466;SDS011;4270;48.148;11.648;2022-12-10T10:20:14;41.37;;;20.37;;
8466;SDS011;4270;48.148;11.648;2022-12-10T10:22:40;43.73;;;21.73;;
8466;SDS011;4270;48.148;11.648;2022-12-10T10:25:06;40.90;;;22.47;;
8466;SDS011;4270;48.148;11.648;2022-12-10T10:27:38;40.20;;;20.77;;
8466;SDS011;4270;48.148;11.648;2022-12-10T10:30:04;41.97;;;19.80;;
8466;SDS011;4270;48.148;11.648;2022-12-10T10:35:00;47.50;;;21.90;;
8466;SDS011;4270;48.148;11.648;2022-12-10T10:37:27;42.27;;;20.30;;
8466;SDS011;4270;48.148;11.648;2022-12-10T10:39:56;43.10;;;19.60;;
8466;SDS011;4270;48.148;11.648;2022-12-10T10:42:33;45.00;;;20.60;;
8466;SDS011;4270;48.148;11.648;2022-12-10T10:44:59;36.40;;;17.83;;
8466;SDS011;4270;48.148;11.648;2022-12-10T10:47:29;43.87;;;21.47;;
8466;SDS011;4270;48.148;11.648;2022-12-10T10:49:55;40.93;;;18.90;;
8466;SDS011;4270;48.148;11.648;2022-12-10T10:52:20;43.57;;;20.63;;
8466;SDS011;4270;48.148;11.648;2022-12-10T10:54:46;48.20;;;21.70;;
8466;SDS011;4270;48.148;11.648;2022-12-10T10:59:42;34.97;;;17.53;;
8466;SDS011;4270;48.148;11.648;2022-12-10T11:02:22;46.70;;;19.57;;
8466;SDS011;4270;48.148;11.648;2022-12-10T11:04:50;43.77;;;19.90;;
8466;SDS011;4270;48.148;11.648;2022-12-10T11:07:34;41.30;;;21.20;;
8466;SDS011;4270;48.148;11.648;2022-12-10T11:10:00;39.13;;;19.00;;
8466;SDS011;4270;48.148;11.648;2022-12-10T11:12:45;39.70;;;19.40;;
8466;SDS011;4270;48.148;11.648;2022-12-10T11:17:49;41.77;;;21.00;;
8466;SDS011;4270;48.148;11.648;2022-12-10T11:20:17;45.63;;;20.80;;
8466;SDS011;4270;48.148;11.648;2022-12-10T11:22:49;41.60;;;19.47;;
8466;SDS011;4270;48.148;11.648;2022-12-10T11:25:14;48.60;;;21.80;;
8466;SDS011;4270;48.148;11.648;2022-12-10T11:27:46;42.03;;;18.93;;
8466;SDS011;4270;48.148;11.648;2022-12-10T11:30:17;37.23;;;19.60;;
8466;SDS011;4270;48.148;11.648;2022-12-10T11:45:23;36.43;;;18.23;;
8466;SDS011;4270;48.148;11.648;2022-12-10T11:55:41;34.67;;;19.13;;
8466;SDS011;4270;48.148;11.648;2022-12-10T12:11:14;40.83;;;21.00;;
8466;SDS011;4270;48.148;11.648;2022-12-10T12:13:49;38.53;;;19.60;;
8466;SDS011;4270;48.148;11.648;2022-12-10T12:16:19;39.10;;;18.97;;
8466;SDS011;4270;48.148;11.648;2022-12-10T12:18:52;39.57;;;19.90;;
8466;SDS011;4270;48.148;11.648;2022-12-10T12:21:19;41.80;;;19.17;;
8466;SDS011;4270;48.148;11.648;2022-12-10T12:24:05;36.57;;;19.83;;
8466;SDS011;4270;48.148;11.648;2022-12-10T12:26:35;40.00;;;19.93;;
8466;SDS011;4270;48.148;11.648;2022-12-10T12:31:49;39.20;;;19.63;;
8466;SDS011;4270;48.148;11.648;2022-12-10T12:34:25;40.97;;;20.40;;
8466;SDS011;4270;48.148;11.648;2022-12-10T12:36:53;37.57;;;20.20;;
8466;SDS011;4270;48.148;11.648;2022-12-10T12:49:52;48.67;;;23.00;;
8466;SDS011;4270;48.148;11.648;2022-12-10T12:52:29;44.20;;;22.00;;
8466;SDS011;4270;48.148;11.648;2022-12-10T12:54:59;39.90;;;19.70;;
8466;SDS011;4270;48.148;11.648;2022-12-10T13:04:42;43.90;;;22.40;;
8466;SDS011;4270;48.148;11.648;2022-12-10T13:09:45;45.63;;;21.47;;
8466;SDS011;4270;48.148;11.648;2022-12-10T13:19:40;47.67;;;25.55;;
8466;SDS011;4270;48.148;11.648;2022-12-10T13:24:59;45.40;;;21.40;;
8466;SDS011;4270;48.148;11.648;2022-12-10T13:27:29;46.53;;;20.97;;
8466;SDS011;4270;48.148;11.648;2022-12-10T13:37:37;48.20;;;23.37;;
8466;SDS011;4270;48.148;11.648;2022-12-10T13:43:58;48.60;;;23.70;;
8466;SDS011;4270;48.148;11.648;2022-12-10T13:46:23;41.23;;;20.53;;
8466;SDS011;4270;48.148;11.648;2022-12-10T13:48:52;42.60;;;22.43;;
8466;SDS011;4270;48.148;11.648;2022-12-10T13:51:30;47.80;;;21.40;;
8466;SDS011;4270;48.148;11.648;2022-12-10T13:54:01;41.23;;;22.90;;
8466;SDS011;4270;48.148;11.648;2022-12-10T13:56:33;48.57;;;23.30;;
8466;SDS011;4270;48.148;11.648;2022-12-10T14:01:40;47.63;;;22.80;;
8466;SDS011;4270;48.148;11.648;2022-12-10T14:06:51;43.67;;;21.10;;
8466;SDS011;4270;48.148;11.648;2022-12-10T14:09:30;47.53;;;22.97;;
8466;SDS011;4270;48.148;11.648;2022-12-10T14:12:02;50.23;;;22.50;;
8466;SDS011;4270;48.148;11.648;2022-12-10T14:14:41;47.07;;;22.07;;
8466;SDS011;4270;48.148;11.648;2022-12-10T14:17:20;52.50;;;22.33;;
8466;SDS011;4270;48.148;11.648;2022-12-10T14:19:48;41.63;;;19.77;;
8466;SDS011;4270;48.148;11.648;2022-12-10T14:22:29;45.30;;;23.60;;
8466;SDS011;4270;48.148;11.648;2022-12-10T14:24:55;45.77;;;22.63;;
8466;SDS011;4270;48.148;11.648;2022-12-10T14:27:24;35.80;;;19.20;;
8466;SDS011;4270;48.148;11.648;2022-12-10T14:29:51;45.47;;;22.73;;
8466;SDS011;4270;48.148;11.648;2022-12-10T14:32:20;43.20;;;21.70;;
8466;SDS011;4270;48.148;11.648;2022-12-10T14:34:51;51.43;;;21.07;;
8466;SDS011;4270;48.148;11.648;2022-12-10T14:37:17;36.40;;;19.63;;
8466;SDS011;4270;48.148;11.648;2022-12-10T14:39:44;42.53;;;20.63;;
8466;SDS011;4270;48.148;11.648;2022-12-10T14:42:11;47.70;;;21.47;;
8466;SDS011;4270;48.148;11.648;2022-12-10T14:44:38;39.77;;;20.97;;
8466;SDS011;4270;48.148;11.648;2022-12-10T14:47:15;46.83;;;23.70;;
8466;SDS011;4270;48.148;11.648;2022-12-10T14:49:41;51.43;;;27.23;;
8466;SDS011;4270;48.148;11.648;2022-12-10T14:52:31;52.10;;;27.70;;
8466;SDS011;4270;48.148;11.648;2022-12-10T14:54:52;44.50;;;22.37;;
8466;SDS011;4270;48.148;11.648;2022-12-10T15:02:29;44.40;;;24.70;;
8466;SDS011;4270;48.148;11.648;2022-12-10T15:04:54;47.03;;;25.60;;
8466;SDS011;4270;48.148;11.648;2022-12-10T15:07:22;46.20;;;21.47;;
8466;SDS011;4270;48.148;11.648;2022-12-10T15:09:48;48.73;;;22.77;;
8466;SDS011;4270;48.148;11.648;2022-12-10T15:15:00;46.17;;;24.07;;
8466;SDS011;4270;48.148;11.648;2022-12-10T15:18:29;57.33;;;27.23;;
8466;SDS011;4270;48.148;11.648;2022-12-10T15:20:23;63.70;;;31.97;;
8466;SDS011;4270;48.148;11.648;2022-12-10T15:22:49;56.83;;;28.37;;
8466;SDS011;4270;48.148;11.648;2022-12-10T15:25:41;74.47;;;35.20;;
8466;SDS011;4270;48.148;11.648;2022-12-10T15:28:00;62.17;;;33.27;;
8466;SDS011;4270;48.148;11.648;2022-12-10T15:30:33;106.40;;;45.17;;
8466;SDS011;4270;48.148;11.648;2022-12-10T15:32:59;74.90;;;35.70;;
8466;SDS011;4270;48.148;11.648;2022-12-10T15:35:24;57.10;;;31.07;;
8466;SDS011;4270;48.148;11.648;2022-12-10T15:37:50;62.47;;;30.97;;
8466;SDS011;4270;48.148;11.648;2022-12-10T15:42:46;56.17;;;28.83;;
8466;SDS011;4270;48.148;11.648;2022-12-10T15:47:39;89.67;;;47.20;;
8466;SDS011;4270;48.148;11.648;2022-12-10T15:50:05;84.70;;;46.43;;
8466;SDS011;4270;48.148;11.648;2022-12-10T15:52:30;50.03;;;27.17;;
8466;SDS011;4270;48.148;11.648;2022-12-10T15:54:56;42.77;;;24.27;;
8466;SDS011;4270;48.148;11.648;2022-12-10T15:57:24;44.47;;;24.50;;
8466;SDS011;4270;48.148;11.648;2022-12-10T15:59:50;47.20;;;24.50;;
8466;SDS011;4270;48.148;11.648;2022-12-10T16:05:01;41.70;;;20.93;;
8466;SDS011;4270;48.148;11.648;2022-12-10T16:07:26;38.73;;;20.63;;
8466;SDS011;4270;48.148;11.648;2022-12-10T16:09:51;38.90;;;20.80;;
8466;SDS011;4270;48.148;11.648;2022-12-10T16:12:17;42.40;;;21.37;;
8466;SDS011;4270;48.148;11.648;2022-12-10T16:14:46;43.70;;;22.53;;
8466;SDS011;4270;48.148;11.648;2022-12-10T16:17:12;36.00;;;19.63;;
8466;SDS011;4270;48.148;11.648;2022-12-10T16:19:37;38.17;;;21.00;;
8466;SDS011;4270;48.148;11.648;2022-12-10T16:22:03;40.00;;;20.57;;
8466;SDS011;4270;48.148;11.648;2022-12-10T16:24:29;39.50;;;21.07;;
8466;SDS011;4270;48.148;11.648;2022-12-10T16:26:54;33.20;;;18.30;;
8466;SDS011;4270;48.148;11.648;2022-12-10T16:29:19;38.97;;;19.23;;
8466;SDS011;4270;48.148;11.648;2022-12-10T16:31:46;36.30;;;19.27;;
8466;SDS011;4270;48.148;11.648;2022-12-10T16:34:11;30.87;;;17.43;;
8466;SDS011;4270;48.148;11.648;2022-12-10T16:36:36;39.10;;;19.57;;
8466;SDS011;4270;48.148;11.648;2022-12-10T16:39:01;37.87;;;18.57;;
8466;SDS011;4270;48.148;11.648;2022-12-10T16:41:27;35.77;;;19.00;;
8466;SDS011;4270;48.148;11.648;2022-12-10T16:43:53;36.50;;;19.57;;
8466;SDS011;4270;48.148;11.648;2022-12-10T16:46:18;37.50;;;18.77;;
8466;SDS011;4270;48.148;11.648;2022-12-10T16:48:43;35.63;;;18.03;;
8466;SDS011;4270;48.148;11.648;2022-12-10T16:51:19;33.20;;;17.07;;
8466;SDS011;4270;48.148;11.648;2022-12-10T16:53:45;28.87;;;15.23;;
8466;SDS011;4270;48.148;11.648;2022-12-10T16:56:12;28.20;;;14.70;;
8466;SDS011;4270;48.148;11.648;2022-12-10T16:58:37;31.57;;;16.33;;
8466;SDS011;4270;48.148;11.648;2022-12-10T17:01:02;30.97;;;16.27;;
8466;SDS011;4270;48.148;11.648;2022-12-10T17:03:27;33.67;;;18.00;;